Glendale, Oregon
Current Conditions -  °F | °C
As of 8:56 AM on Saturday 25 Oct 2014 (Local Time) from KSXT Reporting Station
Light Rain Light Rain  
Wind Chill: 37°   Ceiling: 3200
Heat Index: 45°   Visibility: 9mi
Dew Point: 43°   Wind: 22mph
Humidity: 93%   Direction: 180°S
Pressure: 29.54"   Gusts: 35mph
Location:  42.74°N, 123.42°W
Report Text: KSXT 251556Z AUTO 18019G30KT 9SM -RA BKN032 OVC040 07/06 A2954 RMK AO2 PK WND 17035/1506 RAB21 SLP987 P0002 T00720061
Loading
Personal Weather Stations






























Interactive Weather Map
Tropical Storm Tracking
New forecast layout! Learn more

10-Day Weather Forecast

Advertisements
Track Severe Weather on mobile